Valdez, AK

8:20 AM AKDT on August 24, 2016 (GMT -0800)
Valdez | | Change Station

Elev 121 ft 61.13 °N, 146.25 °W | Updated 4 minutes ago

Overcast
Overcast
50 °F
Feels Like 50 °F
N
0
Wind Variable Wind from North

Today
High -- | Low -- °F
--% Chance of Precip.
Yesterday
High -- | Low -- °F
Precip. -- in
Pressure 30.38 in
Visibility 9.0 miles
Clouds Few 100 ft
Mostly Cloudy 6000 ft
Overcast 7000 ft
Dew Point 45 °F
Humidity 82%
Rainfall 0.41 in
Snow Depth Not available.
6:18 AM 9:13 PM
Waning Gibbous, 55% visible
METAR PAVD 241616Z 00000KT 9SM FEW001 BKN060 OVC070 10/07 A3038 RMK AO1 1547Z WEA: -RA TWR WND 13004KT P0002
Pressure 30.38 in
Visibility 9.0 miles
Clouds Few 100 ft
Mostly Cloudy 6000 ft
Overcast 7000 ft
Dew Point 45 °F
Humidity 82%
Rainfall 0.41 in
Snow Depth Not available.
6:18 AM 9:13 PM
Waning Gibbous, 55% visible
METAR PAVD 241616Z 00000KT 9SM FEW001 BKN060 OVC070 10/07 A3038 RMK AO1 1547Z WEA: -RA TWR WND 13004KT P0002

10-Day Weather Forecast

Almanac

Astronomy

Aug. 24, 2016 Rise Set
Actual Time
Civil Twilight
Nautical Twilight
Astronomical Twilight
Moon
Length of Visible Light
Length of Day
Tomorrow will be .
, % of the Moon is Illuminated

Today's Extremes

State Highs State Lows

Community

WunderPhotos

Upload Photos

1,934,648 photos uploaded!

WunderBlog® & News

Nearby

Air Quality

  Air Quality AQ Index Pollutant
Not available.

Snow Depth

Station Depth Elevation

Earthquake Activity

City Distance Mag. Time & Date
Minimum magnitude displayed is 2.5.

Coastal Water Temperatures

Place Temperature

Stations

Nearby Weather Stations

Station Location Temp. Windchill Dew Point Humidity Wind Precip. Elev Updated Type
                   

Watches & Warnings

There are currently no watches in effect.